Felipe Pacheco

Ojeador - Grêmio
9 Dic 2027
Jueves
Continuar

Personalidad

Adaptabilidad (20) Ambición (2) Controversia (10) Lealtad (12) Presión (15) Profesionalismo (19) Deportividad (14) Temperamento (11)

Perfil

Estilo de dirección Democrático
Licencia Nacional A
Determinación 13
Gestión de personas 8
Motivación 11
Disciplina 9
Satisfacción laboral
100%
Fatiga
0%
Cargo Ojeador
Salario 109.3K p/s
Contrato 14.03.2030

Rendimiento

Comportamiento Bueno
Efectividad del entrenamiento
65%
Desarrollo de jugadores
35%
Prevención de lesiones
40%
Implementación táctica
70%

Eventos recientes

Asistió a una reunión de captación ahora
Recomendó un objetivo de fichaje ahora
Recomendó un objetivo de fichaje ahora
Recomendó un objetivo de fichaje ahora
Presentó un informe a la directiva ahora
Presentó un informe a la directiva ahora
Presentó un informe a la directiva 7d atrás
Presentó un informe a la directiva 7d atrás

Actualmente siguiendo

187
Jugador Club Estado Habilidad Confianza Observado Última observación Último voto
Lucas Moura Sport Recife Informe listo 132 / 136 95% 1 07.12.2027 -
Eric Ramires Bragantino Activo 128 / 130 95% 1 03.12.2027 Aprobar
Marvelous Freedom Ikorodu City Activo 91 / 96 40% 5 01.12.2027 -
Martim Cunha Porto Activo 107 / 118 40% 2 01.12.2027 -
Willian José Bahia Activo 120 / 118 95% 1 01.12.2027 Aprobar
Dmitry Pestryakov Dinamo Moscow Activo 118 / 130 40% 1 01.12.2027 -
Bahia Criciuma Activo 114 / 123 40% 2 23.11.2027 -
Ronan Kpakio Cardiff City Activo 122 / 125 40% 1 23.11.2027 -
Ayden Heaven Luton Town Activo 145 / 147 40% 3 21.11.2027 -
Josh Nichols Tranmere Rovers Activo 120 / 126 40% 2 21.11.2027 -
Figueiredo Sampaio Correa Activo 93 / 96 40% 2 21.11.2027 -
Gonçalo Oliveira Benfica Activo 117 / 122 40% 2 17.11.2027 -
Caleb Yirenkyi Coventry City Activo 141 / 143 40% 1 17.11.2027 -
Joel Ezra Enyimba Activo 94 / 100 40% 2 15.11.2027 -
Hervin Goyes Deportivo Pasto Activo 107 / 111 40% 1 15.11.2027 -
Ignacio Fernández Boston River Activo 92 / 100 40% 4 13.11.2027 -
João Teixeira Porto Activo 114 / 126 40% 2 13.11.2027 -
Julián Bazán Philadelphia Union Activo 113 / 117 40% 1 13.11.2027 -
Eduardo Felicíssimo Sporting CP Activo 119 / 130 40% 4 09.11.2027 -
Bernardo Lima Porto Activo 106 / 118 40% 2 09.11.2027 -
Giovanni Leoni Bradford City Activo 139 / 146 40% 2 09.11.2027 -
Tiago Freitas Benfica Activo 117 / 127 40% 2 06.11.2027 -
Daniel Costa Sporting CP Activo 100 / 109 40% 1 06.11.2027 -
Ricky Atletico Venezuela Activo 97 / 103 40% 2 05.11.2027 -
Tyson Pearce St. Louis CITY SC Activo 93 / 96 40% 1 01.11.2027 -
Luis Otávio Colorado Rapids Activo 110 / 116 40% 1 30.10.2027 -
Mauro Carrizo Atlético Tucumán Activo 102 / 107 40% 1 26.10.2027 -
Daniel Banjaqui Benfica Activo 120 / 133 40% 2 25.10.2027 -
Myles Lewis-Skelly Birmingham Activo 153 / 163 40% 1 25.10.2027 -
Jens Hjertø-Dahl Hull City Activo 127 / 131 40% 1 20.10.2027 -
Brooke Norton-Cuffy Inter Miami CF Activo 138 / 140 40% 2 07.09.2027 -
Juan Manuel Sanabria Real Salt Lake Activo 128 / 125 40% 1 07.09.2027 -
Japhet Sery Larsen Philadelphia Union Activo 127 / 123 40% 1 07.09.2027 -
Matheus Bidu Corinthians Activo 129 / 126 40% 3 04.09.2027 -
Mateo Mendoza Godoy Cruz Activo 128 / 127 40% 2 04.09.2027 -
Alhassan Yusuf New England Revolution Activo 128 / 126 40% 2 31.08.2027 -
Bruno Leyes Godoy Cruz Activo 127 / 130 40% 2 31.08.2027 -
Steven Alzate Atlanta United FC Activo 128 / 130 40% 1 31.08.2027 -
Renato Tapia Al Wasl Activo 139 / 142 40% 1 24.08.2027 -
Álvaro Carrillo APOEL Activo 128 / 127 40% 1 24.08.2027 -
Guilherme Arana Fluminense Activo 136 / 136 40% 1 21.08.2027 -
Keven Schlotterbeck FC Augsburg Activo 142 / 140 40% 1 21.08.2027 -
Curtis Jones Inter Activo 162 / 164 40% 8 15.08.2027 -
Fikayo Tomori AC Milan Activo 155 / 158 40% 1 15.08.2027 -
Manu Koné AS Roma Activo 168 / 166 40% 4 12.08.2027 -
Alessio Romagnoli Lazio Activo 151 / 148 40% 1 12.08.2027 -
Adrià Altimira Deportivo La Coruña Activo 138 / 131 40% 1 12.08.2027 -
Oumar Solet Udinese Activo 152 / 152 40% 1 11.08.2027 -
Josh Doig Sassuolo Activo 141 / 137 40% 1 11.08.2027 -
Adam Wharton Crystal Palace Activo 157 / 159 40% 1 09.08.2027 -
Christos Mouzakitis Hull City Activo 137 / 148 40% 1 09.08.2027 -
Dara O'Shea Ipswich Town Activo 141 / 141 40% 2 07.08.2027 -
Tyler Adams Bournemouth Activo 158 / 157 40% 3 07.08.2027 -
Sven Botman Newcastle United Activo 163 / 166 40% 2 07.08.2027 -
Ethan Galbraith Swansea City Activo 138 / 131 40% 3 06.08.2027 -
Mats Wieffer Brighton Activo 152 / 153 40% 1 06.08.2027 -
Saša Lukić Ipswich Town Activo 146 / 140 40% 2 04.08.2027 -
Callum Brittain Middlesbrough Activo 135 / 132 40% 4 04.08.2027 -
Toby Collyer West Bromwich Albion Activo 137 / 144 40% 1 04.08.2027 -
Boubacar Kamara Aston Villa Activo 167 / 162 40% 4 02.08.2027 -
Imrân Louza Watford Activo 135 / 130 40% 1 02.08.2027 -
Óscar Mingueza Crystal Palace Activo 154 / 150 40% 4 19.07.2027 -
Ryan Sessegnon Fulham Activo 149 / 152 40% 4 19.07.2027 -
Florentino Luís Ipswich Town Activo 142 / 139 40% 2 30.05.2027 -
Morgan Whittaker Middlesbrough Activo 133 / 131 40% 6 28.05.2027 -
Kevin Fulham Activo 151 / 145 40% 3 28.05.2027 -
Scott Twine Bristol City Activo 127 / 128 40% 1 28.05.2027 -
Marco Asensio Fenerbahce Activo 158 / 149 40% 3 26.05.2027 Observar
Francisco Conceição Juventus Activo 160 / 158 40% 2 26.05.2027 -
Georginio Rutter Brighton Activo 149 / 154 40% 2 26.05.2027 -
Jack Rudoni Coventry City Activo 136 / 128 40% 3 24.05.2027 -
Giacomo Raspadori Atalanta Activo 149 / 148 40% 6 24.05.2027 -
Jacob Ramsey Newcastle United Activo 153 / 148 40% 2 24.05.2027 -
Amadou Onana Aston Villa Activo 156 / 159 40% 2 21.05.2027 -
Hector Ramirez Newcastle United Activo 153 / 156 40% 1 21.05.2027 -
Adrien Truffert Bournemouth Activo 150 / 154 40% 2 19.05.2027 -
Andrey Oeste Activo 103 / 103 30% 1 / 1m 19.05.2027 -
Wellerson Sampaio Correa Activo 101 / 101 30% 1 / 1m 19.05.2027 -
Dango Ouattara Brentford Activo 148 / 140 40% 4 18.05.2027 -
Xavi Simons Tottenham Activo 159 / 159 40% 4 17.05.2027 -
Callum Hudson-Odoi Nottingham Forest Activo 152 / 149 40% 1 16.05.2027 -
Ousmane Diomande Nottingham Forest Activo 152 / 160 40% 2 15.05.2027 -
Yehor Yarmoliuk Brentford Activo 148 / 154 40% 2 15.05.2027 -
Kenny Tete Fulham Activo 143 / 139 40% 1 15.05.2027 -
Kenan Yıldız Juventus Activo 163 / 163 40% 1 10.05.2027 -
Matías Soulé AS Roma Perdido 157 / 159 40% 1 10.05.2027 -
Quinten Timber Crystal Palace Activo 151 / 147 40% 1 09.05.2027 -
Léo Scienza Southampton Activo 139 / 136 40% 1 08.05.2027 -
Derry Murkin Derby County Activo 127 / 126 40% 2 07.05.2027 -
Nordi Mukiele Sunderland Activo 145 / 146 40% 1 07.05.2027 -
Tom Fellows Southampton Activo 134 / 129 40% 11 06.05.2027 -
Finn Azaz Southampton Activo 130 / 122 40% 4 04.05.2027 -
Harry Wilson Leeds United Activo 144 / 138 40% 1 04.05.2027 -
Mikkel Damsgaard Brentford Activo 147 / 144 40% 2 03.05.2027 -
Carlos Vicente Birmingham Activo 145 / 140 40% 2 02.05.2027 -
Othmane Maamma Watford Activo 126 / 134 40% 1 01.05.2027 -
Jan Paul van Hecke Tottenham Activo 159 / 160 40% 1 30.04.2027 -
Anton Stach Leeds United Activo 150 / 148 40% 2 29.04.2027 -
Kiernan Dewsbury-Hall Everton Activo 153 / 148 40% 1 29.04.2027 -
Welington Southampton Activo 133 / 129 40% 1 29.04.2027 -
Nico González Newcastle United Activo 162 / 156 40% 2 28.04.2027 -
Mario Dorgeles Braga Activo 136 / 133 40% 9 25.04.2027 -
Pau Víctor AVS Activo 141 / 137 40% 5 25.04.2027 -
Ricardo Horta Braga Activo 151 / 145 40% 5 25.04.2027 -
William Gomes Porto Activo 142 / 151 40% 4 24.04.2027 -
Renato Sanches AVS Activo 132 / 130 40% 2 22.04.2027 -
Víctor Gómez Braga Activo 142 / 137 40% 8 20.04.2027 -
Rodrigo Zalazar Sporting CP Activo 152 / 153 40% 2 20.04.2027 -
Samu Vitoria Guimaraes Activo 130 / 124 40% 4 15.04.2027 -
Diego Lainez Tigres Activo 132 / 131 40% 5 13.04.2027 -
Iván Fresneda Sporting CP Activo 142 / 147 40% 6 12.04.2027 -
Luís Guilherme Sporting CP Activo 130 / 134 40% 2 12.04.2027 -
Ozziel Herrera Tigres Activo 131 / 132 40% 5 12.04.2027 -
Francisco Moura Lusitânia Lourosa Activo 141 / 139 40% 9 11.04.2027 -
Shea Charles Southampton Activo 135 / 141 40% 2 11.04.2027 -
Kyle Walker-Peters West Ham United Activo 137 / 140 40% 1 10.04.2027 -
Lee Hyun-Ju Arouca Activo 123 / 117 40% 7 09.04.2027 -
Alejandro Zendejas Club America Activo 142 / 143 40% 2 09.04.2027 -
Gianluca Prestianni Benfica Activo 136 / 143 40% 3 09.04.2027 -
Telmo Arcanjo Vitoria Guimaraes Activo 125 / 120 40% 1 09.04.2027 -
Alfonso Trezza Arouca Activo 124 / 125 40% 1 08.04.2027 -
Gabri Martínez Braga Activo 130 / 137 40% 6 04.04.2027 -
Luis Quintero Torreense Activo 125 / 124 40% 4 04.04.2027 -
Juninho Pumas UNAM Activo 131 / 131 40% 3 03.04.2027 -
Jesús Ricardo Angulo Toluca Activo 135 / 128 40% 8 02.04.2027 -
Fredrik Aursnes Benfica Activo 151 / 150 40% 1 31.03.2027 -
Pepê Porto Activo 147 / 138 40% 3 28.03.2027 -
Luís Esteves Atlas Activo 130 / 131 40% 4 28.03.2027 -
Isaiah Jones Luton Town Activo 126 / 126 40% 1 28.03.2027 -
Valery Académico de Viseu Activo 126 / 121 40% 1 28.03.2027 -
Nuno Santos Sporting CP Activo 139 / 133 40% 5 24.03.2027 -
Víctor Dávila Club America Activo 129 / 129 40% 2 24.03.2027 -
Paulo Moreira Farense Activo 125 / 124 40% 2 22.03.2027 -
Bosun Lawal Stoke City Activo 129 / 125 40% 1 22.03.2027 -
Alan Varela Porto Activo 145 / 146 40% 6 19.03.2027 -
Alberto Costa Porto Activo 144 / 139 40% 14 18.03.2027 -
Gabriel Veron Porto Activo 128 / 129 40% 1 18.03.2027 -
Soungoutou Magassa West Ham United Activo 133 / 138 40% 1 14.03.2027 -
Lewis Ferguson Bologna Activo 145 / 141 40% 1 14.03.2027 -
Erick Sánchez OGC Nice Activo 142 / 145 40% 2 13.03.2027 -
Agustín Palavecino Cruz Azul Activo 139 / 134 40% 1 09.03.2027 -
André Silva Tondela Activo 129 / 122 40% 4 08.03.2027 -
Gonçalo Inácio Sporting CP Activo 147 / 148 40% 6 07.03.2027 -
Gustaf Lagerbielke Braga Activo 137 / 138 40% 2 07.03.2027 -
Aidan Morris Middlesbrough Activo 132 / 126 40% 1 07.03.2027 -
Rodrigo Pinheiro Famalicao Activo 127 / 132 40% 6 03.03.2027 -
Santi García Gil Vicente Activo 132 / 135 40% 9 03.03.2027 -
João Palhinha Benfica Activo 150 / 151 40% 2 01.03.2027 -
Derensili Sanches Fernandes Huddersfield Town Activo 125 / 127 40% 2 26.02.2027 -
Callum Doyle Wrexham Activo 130 / 131 40% 1 23.02.2027 -
Félix Lemaréchal Club Brugge Activo 137 / 132 40% 2 21.02.2027 -
Gustavo Silva Vitoria Guimaraes Activo 125 / 118 40% 1 21.02.2027 -
Heorhii Sudakov Benfica Activo 147 / 142 40% 4 20.02.2027 -
Brian Rodríguez Club America Activo 130 / 130 40% 1 11.02.2027 -
Lewis Morgan SuperSport United Activo 127 / 121 40% 2 07.02.2027 -
Christian Krasnodar Activo 137 / 128 40% 1 06.02.2027 -
Samuel Lino Flamengo Activo 140 / 142 40% 4 04.02.2027 -
Dodi Lukébakio Benfica Activo 146 / 141 40% 1 03.02.2027 -
Jordan Holsgrove Estoril Praia Activo 127 / 136 40% 2 25.01.2027 -
Rafik Guitane Estoril Praia Activo 129 / 136 40% 2 25.01.2027 -
João Simões Sporting CP Activo 127 / 138 40% 1 20.01.2027 -
Figueiredo Alverca Activo 125 / 133 40% 3 19.01.2027 -
Henry Mosquera Bragantino Activo 133 / 125 40% 2 15.01.2027 -
Bright Arrey-Mbi Braga Activo 131 / 130 40% 1 29.11.2026 -
Matheuzinho Corinthians Activo 129 / 127 40% 2 24.11.2026 -
Sergi Altimira Sporting CP Activo 140 / 138 40% 3 22.11.2026 -
Tomás Araújo Benfica Activo 149 / 149 40% 1 19.11.2026 -
Lucas Piton Vasco da Gama Activo 129 / 125 40% 3 16.11.2026 -
Mathias De Amorim Famalicao Activo 128 / 131 40% 1 16.11.2026 -
Zeno Debast Sporting CP Activo 145 / 141 40% 3 15.11.2026 -
Lukáš Červ Viktoria Plzen Activo 132 / 136 40% 1 14.11.2026 -
Victor Froholdt Porto Activo 147 / 164 40% 1 07.11.2026 -
Adalberto Carrasquilla Pumas UNAM Activo 128 / 124 40% 2 01.11.2026 -
Vitinho Botafogo Activo 130 / 133 40% 1 28.10.2026 -
Leandro Lozano Boca Juniors Activo 127 / 127 40% 1 28.10.2026 -
Caio Alexandre Bahia Activo 134 / 135 40% 3 15.10.2026 -
Dinis Pinto Moreirense Activo 128 / 124 40% 3 15.10.2026 -
Facundo Mura Inter Miami CF Activo 127 / 126 40% 2 05.10.2026 -
Aníbal Moreno River Plate Activo 134 / 130 40% 1 05.10.2026 -
Nicolás Romero Minnesota United FC Activo 125 / 132 40% 1 27.09.2026 -
Kevin Álvarez Club America Activo 135 / 134 40% 1 23.09.2026 -
Emerson Royal Flamengo Activo 136 / 128 40% 1 19.09.2026 -
Chico Kim Mirassol Activo 124 / 124 30% 1 / 1m 19.08.2026 -
Erick Vitória Activo 132 / 132 52% 1 / 1m 19.08.2026 -
Jader Santa Clara Activo 114 / 117 42% 1 / 1m 12.08.2026 -
Brais Méndez Columbus Crew Activo 148 / 143 40% 1 05.08.2026 -
Pablo Rosario Porto Activo 138 / 143 40% 1 04.08.2026 -